Time;durP1;ratioP1;P1;durP2;ratioP2;P2;SDS_P1;SDS_P2;PMS_P1;PMS_P2;Temp;Humidity;BMP_temperature;BMP_pressure;BME280_temperature;BME280_humidity;BME280_pressure;Samples;Min_cycle;Max_cycle;Signal;HPM_P1;HPM_P2
2024/03/17 00:00:22;;;;;;;0.60;0.60;;;17.90;69.70;;;;;;6185957;23;20551;-83
2024/03/17 00:02:48;;;;;;;1.35;0.50;;;17.80;70.00;;;;;;6186073;23;20150;-84
2024/03/17 00:05:14;;;;;;;0.50;0.50;;;17.90;69.70;;;;;;6161394;23;20189;-84
2024/03/17 00:07:45;;;;;;;0.47;0.47;;;17.90;69.80;;;;;;6186477;23;20139;-84
2024/03/17 00:10:10;;;;;;;0.43;0.43;;;17.80;70.10;;;;;;6185272;23;20161;-84
2024/03/17 00:12:37;;;;;;;0.60;0.60;;;17.80;69.80;;;;;;6186300;23;20135;-83
2024/03/17 00:15:06;;;;;;;0.40;0.40;;;17.80;70.30;;;;;;6186723;23;20177;-84
2024/03/17 00:17:34;;;;;;;0.70;0.55;;;17.80;69.70;;;;;;6185726;23;20523;-84
2024/03/17 00:20:04;;;;;;;0.50;0.40;;;17.80;69.40;;;;;;6136234;23;20255;-84
2024/03/17 00:22:39;;;;;;;0.60;0.60;;;17.80;70.10;;;;;;6186045;23;20134;-84
2024/03/17 00:25:11;;;;;;;0.50;0.50;;;17.90;69.60;;;;;;6137616;23;20208;-84
2024/03/17 00:27:39;;;;;;;0.93;0.60;;;17.80;70.00;;;;;;6160192;23;20230;-84
2024/03/17 00:30:12;;;;;;;0.98;0.55;;;17.80;70.00;;;;;;6160902;23;20185;-84
2024/03/17 00:32:40;;;;;;;0.50;0.40;;;17.80;69.80;;;;;;6185836;23;20573;-84
2024/03/17 00:35:07;;;;;;;0.75;0.52;;;17.80;69.90;;;;;;6185837;23;20567;-84
2024/03/17 00:37:33;;;;;;;0.52;0.50;;;17.80;70.20;;;;;;6161206;23;20143;-84
2024/03/17 00:40:01;;;;;;;0.40;0.40;;;17.80;69.80;;;;;;6185670;23;20146;-84
2024/03/17 00:42:27;;;;;;;0.60;0.55;;;17.80;69.40;;;;;;6160626;23;20147;-84
2024/03/17 00:44:53;;;;;;;0.55;0.55;;;17.70;69.80;;;;;;6186820;23;20150;-84
2024/03/17 00:47:20;;;;;;;0.40;0.40;;;17.80;69.90;;;;;;6187435;23;20169;-84
2024/03/17 00:49:46;;;;;;;0.90;0.70;;;17.80;69.90;;;;;;6187214;23;20899;-85
2024/03/17 00:52:12;;;;;;;0.57;0.50;;;17.70;70.00;;;;;;6188923;23;20209;-84
2024/03/17 00:54:37;;;;;;;0.45;0.45;;;17.70;70.10;;;;;;6186484;23;20149;-84
2024/03/17 00:57:03;;;;;;;0.73;0.60;;;17.80;70.10;;;;;;6187869;23;20185;-84
2024/03/17 00:59:29;;;;;;;0.85;0.77;;;17.70;70.30;;;;;;6162201;23;20155;-84
2024/03/17 01:01:55;;;;;;;0.60;0.52;;;17.70;70.10;;;;;;6187127;23;20135;-85
2024/03/17 01:04:20;;;;;;;0.45;0.40;;;17.70;70.20;;;;;;6162287;23;20537;-84
2024/03/17 01:06:47;;;;;;;0.40;0.40;;;17.70;69.50;;;;;;6186773;23;20143;-84
2024/03/17 01:09:14;;;;;;;0.57;0.50;;;17.80;69.80;;;;;;6185936;23;20208;-84
2024/03/17 01:11:40;;;;;;;0.50;0.50;;;17.70;69.50;;;;;;6187464;23;20182;-84
2024/03/17 01:14:07;;;;;;;0.77;0.50;;;17.70;69.80;;;;;;6186844;23;20131;-84
2024/03/17 01:16:33;;;;;;;0.50;0.50;;;17.80;69.20;;;;;;6212580;23;20147;-84
2024/03/17 01:19:00;;;;;;;0.93;0.70;;;17.80;69.80;;;;;;6186859;23;20570;-84
2024/03/17 01:21:27;;;;;;;0.50;0.50;;;17.70;69.60;;;;;;6162600;23;20154;-84
2024/03/17 01:23:52;;;;;;;0.40;0.40;;;17.70;69.60;;;;;;6189017;23;20161;-84
2024/03/17 01:26:21;;;;;;;0.40;0.40;;;17.80;69.50;;;;;;6186724;23;20610;-84
2024/03/17 01:28:50;;;;;;;0.63;0.50;;;17.70;69.70;;;;;;6161352;23;20253;-85
2024/03/17 01:31:16;;;;;;;0.60;0.50;;;17.80;69.30;;;;;;6161212;23;20154;-85
2024/03/17 01:33:42;;;;;;;1.05;0.40;;;17.80;69.80;;;;;;6186728;23;20290;-84
2024/03/17 01:36:08;;;;;;;0.55;0.47;;;17.80;69.40;;;;;;6187119;23;20550;-84
2024/03/17 01:38:35;;;;;;;0.38;0.35;;;17.70;69.60;;;;;;6188752;23;20146;-84
2024/03/17 01:41:01;;;;;;;0.45;0.45;;;17.70;69.80;;;;;;6188601;23;20150;-84
2024/03/17 01:43:27;;;;;;;0.63;0.50;;;17.70;69.60;;;;;;6186738;23;20223;-84
2024/03/17 01:45:53;;;;;;;0.60;0.60;;;17.70;70.00;;;;;;6161971;23;20163;-84
2024/03/17 01:48:21;;;;;;;0.40;0.40;;;17.70;70.10;;;;;;6186378;23;20590;-84
2024/03/17 01:50:48;;;;;;;1.25;0.63;;;17.70;69.60;;;;;;6162040;23;20574;-84
2024/03/17 01:53:14;;;;;;;0.40;0.40;;;17.70;69.70;;;;;;6161039;23;20158;-84
2024/03/17 01:55:40;;;;;;;0.60;0.60;;;17.70;69.80;;;;;;6185806;23;20158;-84
2024/03/17 01:58:07;;;;;;;0.50;0.50;;;17.70;70.10;;;;;;6186761;23;20543;-84
2024/03/17 02:00:36;;;;;;;0.60;0.50;;;17.60;70.20;;;;;;6162092;23;20182;-84
2024/03/17 02:03:04;;;;;;;0.52;0.52;;;17.70;70.00;;;;;;6187237;23;20131;-84
2024/03/17 02:05:29;;;;;;;0.50;0.50;;;17.60;69.90;;;;;;6162172;23;20159;-84
2024/03/17 02:07:56;;;;;;;0.88;0.73;;;17.60;70.00;;;;;;6186972;23;20174;-84
2024/03/17 02:10:22;;;;;;;0.38;0.38;;;17.60;69.80;;;;;;6187011;23;20150;-84
2024/03/17 02:12:48;;;;;;;0.32;0.32;;;17.70;68.90;;;;;;6186607;23;20486;-84
2024/03/17 02:15:14;;;;;;;0.30;0.30;;;17.70;69.40;;;;;;6186966;23;20138;-86
2024/03/17 02:17:41;;;;;;;0.70;0.50;;;17.70;69.30;;;;;;6186573;23;20155;-84
2024/03/17 02:20:11;;;;;;;0.65;0.60;;;17.70;69.40;;;;;;6160668;23;20155;-84
2024/03/17 02:22:37;;;;;;;0.60;0.50;;;17.60;70.10;;;;;;6161736;23;20542;-85
2024/03/17 02:25:09;;;;;;;0.50;0.50;;;17.60;70.00;;;;;;6161546;23;20155;-84
2024/03/17 02:27:38;;;;;;;0.73;0.40;;;17.60;69.80;;;;;;6161672;23;20151;-84
2024/03/17 02:30:08;;;;;;;0.50;0.50;;;17.70;70.30;;;;;;6160531;23;20213;-84
2024/03/17 02:32:39;;;;;;;0.50;0.50;;;17.60;69.50;;;;;;6162165;23;20540;-84
2024/03/17 02:35:06;;;;;;;0.40;0.40;;;17.70;70.10;;;;;;6136120;23;20189;-84
2024/03/17 02:37:33;;;;;;;0.40;0.40;;;17.60;70.10;;;;;;6136170;23;20166;-84
2024/03/17 02:39:59;;;;;;;0.57;0.50;;;17.60;69.50;;;;;;6160445;23;20155;-84
2024/03/17 02:42:26;;;;;;;0.30;0.30;;;17.60;69.60;;;;;;6186770;23;20146;-84
2024/03/17 02:44:52;;;;;;;0.98;0.57;;;17.60;69.80;;;;;;6111528;23;20193;-84
2024/03/17 02:47:19;;;;;;;0.90;0.65;;;17.70;69.40;;;;;;6186486;23;20154;-84
2024/03/17 02:49:50;;;;;;;0.52;0.52;;;17.70;69.40;;;;;;6185991;23;20159;-84
2024/03/17 02:52:17;;;;;;;0.50;0.45;;;17.60;69.60;;;;;;6186029;23;20209;-84
2024/03/17 02:54:42;;;;;;;0.43;0.40;;;17.60;69.70;;;;;;6160610;23;20159;-84
2024/03/17 02:57:08;;;;;;;0.40;0.40;;;17.60;69.70;;;;;;6161634;23;20652;-84
2024/03/17 02:59:34;;;;;;;0.40;0.40;;;17.60;70.10;;;;;;6186072;23;20139;-84
2024/03/17 03:02:01;;;;;;;0.60;0.50;;;17.50;69.40;;;;;;6185982;23;20135;-84
2024/03/17 03:04:27;;;;;;;0.63;0.60;;;17.60;69.70;;;;;;6185973;23;20177;-84
2024/03/17 03:06:53;;;;;;;0.95;0.50;;;17.60;69.80;;;;;;6160617;23;20147;-84
2024/03/17 03:09:30;;;;;;;0.30;0.30;;;17.60;70.20;;;;;;6185990;23;20167;-84
2024/03/17 03:12:01;;;;;;;0.40;0.40;;;17.60;69.70;;;;;;6186645;23;20134;-84
2024/03/17 03:14:27;;;;;;;0.73;0.60;;;17.60;69.70;;;;;;6186035;23;20127;-85
2024/03/17 03:16:56;;;;;;;0.47;0.47;;;17.60;69.50;;;;;;6185649;23;20162;-84
2024/03/17 03:19:21;;;;;;;0.45;0.45;;;17.60;69.80;;;;;;6134911;23;20214;-85
2024/03/17 03:21:47;;;;;;;0.50;0.50;;;17.60;69.60;;;;;;6161267;23;20197;-84
2024/03/17 03:24:14;;;;;;;0.43;0.40;;;17.60;69.70;;;;;;6186279;23;20162;-84
2024/03/17 03:26:40;;;;;;;0.47;0.43;;;17.60;69.40;;;;;;6160899;23;20647;-84
2024/03/17 03:29:06;;;;;;;0.40;0.40;;;17.60;69.40;;;;;;6160618;23;20265;-84
2024/03/17 03:31:32;;;;;;;0.50;0.50;;;17.60;69.90;;;;;;6185153;23;20186;-84
2024/03/17 03:34:01;;;;;;;0.50;0.50;;;17.60;69.90;;;;;;6185172;23;20150;-85
2024/03/17 03:36:28;;;;;;;0.73;0.60;;;17.50;70.50;;;;;;6186897;23;20131;-84
2024/03/17 03:38:54;;;;;;;0.80;0.60;;;17.60;69.50;;;;;;6160148;23;20594;-84
2024/03/17 03:41:22;;;;;;;0.50;0.50;;;17.60;69.80;;;;;;6186142;23;20219;-84
2024/03/17 03:43:49;;;;;;;0.40;0.40;;;17.50;69.80;;;;;;6205307;23;20131;-83
2024/03/17 03:46:20;;;;;;;0.43;0.43;;;17.50;69.90;;;;;;6207778;23;20147;-83
2024/03/17 03:48:50;;;;;;;0.60;0.60;;;17.50;69.90;;;;;;6182098;23;20186;-83
2024/03/17 03:51:16;;;;;;;0.60;0.60;;;17.50;69.60;;;;;;6147281;23;20202;-84
2024/03/17 03:53:42;;;;;;;0.60;0.60;;;17.50;69.90;;;;;;6185042;23;20154;-84
2024/03/17 03:56:15;;;;;;;0.60;0.50;;;17.50;69.80;;;;;;6185777;23;20162;-84
2024/03/17 03:58:42;;;;;;;0.70;0.50;;;17.50;69.80;;;;;;6159639;23;20330;-84
2024/03/17 04:01:08;;;;;;;0.70;0.40;;;17.50;69.80;;;;;;6185740;23;20134;-84
2024/03/17 04:03:35;;;;;;;0.60;0.60;;;17.50;69.50;;;;;;6185418;23;20189;-84
2024/03/17 04:06:10;;;;;;;0.60;0.40;;;17.60;69.80;;;;;;6185632;23;20293;-84
2024/03/17 04:08:40;;;;;;;0.40;0.40;;;17.50;70.60;;;;;;6160732;23;20178;-84
2024/03/17 04:11:25;;;;;;;0.35;0.35;;;17.50;69.20;;;;;;6136814;23;20161;-84
2024/03/17 04:14:02;;;;;;;0.75;0.50;;;17.50;69.60;;;;;;6185917;23;20570;-84
2024/03/17 04:16:36;;;;;;;0.60;0.40;;;17.50;69.70;;;;;;6185678;23;20134;-84
2024/03/17 04:19:57;;;;;;;0.47;0.40;;;17.50;69.40;;;;;;6135048;23;20158;-84
2024/03/17 04:22:27;;;;;;;0.60;0.50;;;17.60;69.50;;;;;;6160074;23;20163;-84
2024/03/17 04:24:57;;;;;;;0.50;0.50;;;17.50;69.00;;;;;;6185055;23;20158;-84
2024/03/17 04:27:26;;;;;;;0.60;0.50;;;17.50;69.70;;;;;;6135207;23;20186;-84
2024/03/17 04:29:58;;;;;;;0.82;0.60;;;17.50;69.60;;;;;;6134689;23;20621;-84
2024/03/17 04:32:24;;;;;;;0.35;0.35;;;17.50;69.70;;;;;;6135159;23;20248;-84
2024/03/17 04:34:50;;;;;;;0.50;0.40;;;17.50;69.50;;;;;;6159970;23;20245;-84
2024/03/17 04:37:17;;;;;;;0.77;0.55;;;17.50;69.30;;;;;;6185354;23;20155;-84
2024/03/17 04:39:45;;;;;;;0.65;0.30;;;17.50;69.30;;;;;;6134887;23;20162;-84
2024/03/17 04:42:14;;;;;;;0.40;0.40;;;17.50;69.10;;;;;;6210349;23;20197;-84
2024/03/17 04:44:40;;;;;;;0.50;0.50;;;17.50;69.40;;;;;;6160325;23;20158;-84
2024/03/17 04:47:06;;;;;;;0.40;0.40;;;17.50;68.90;;;;;;6185448;23;20138;-84
2024/03/17 04:49:36;;;;;;;0.40;0.40;;;17.50;69.00;;;;;;6185370;23;20178;-84
2024/03/17 04:52:02;;;;;;;0.60;0.50;;;17.50;69.40;;;;;;6186777;23;20209;-84
2024/03/17 04:54:30;;;;;;;0.40;0.40;;;17.60;69.60;;;;;;6159726;23;20147;-84
2024/03/17 04:56:56;;;;;;;0.50;0.50;;;17.60;69.40;;;;;;6185370;23;20147;-84
2024/03/17 04:59:22;;;;;;;0.52;0.50;;;17.50;69.30;;;;;;6185001;23;20162;-85
2024/03/17 05:01:48;;;;;;;0.40;0.40;;;17.50;69.20;;;;;;6160833;23;20154;-84
2024/03/17 05:04:15;;;;;;;0.50;0.47;;;17.50;69.40;;;;;;6185330;23;20151;-84
2024/03/17 05:06:46;;;;;;;0.30;0.30;;;17.50;69.40;;;;;;6185163;23;20178;-84
2024/03/17 05:09:14;;;;;;;0.57;0.57;;;17.50;69.60;;;;;;6161153;23;20229;-84
2024/03/17 05:11:40;;;;;;;0.43;0.43;;;17.50;69.40;;;;;;6185568;23;20150;-84
2024/03/17 05:14:06;;;;;;;1.38;0.50;;;17.50;69.20;;;;;;6184903;23;20168;-84
2024/03/17 05:16:32;;;;;;;0.50;0.50;;;17.50;69.20;;;;;;6160168;23;20582;-84
2024/03/17 05:18:58;;;;;;;0.80;0.60;;;17.40;68.40;;;;;;6159819;23;20155;-85
2024/03/17 05:21:25;;;;;;;0.50;0.50;;;17.50;69.10;;;;;;6185339;23;20135;-84
2024/03/17 05:23:51;;;;;;;0.50;0.50;;;17.40;69.10;;;;;;6159660;23;20163;-84
2024/03/17 05:26:18;;;;;;;0.65;0.40;;;17.50;69.40;;;;;;6185539;23;20142;-85
2024/03/17 05:28:44;;;;;;;0.77;0.50;;;17.40;69.50;;;;;;6134388;23;20676;-87
2024/03/17 05:31:13;;;;;;;0.45;0.43;;;17.50;69.20;;;;;;6186106;23;20147;-84
2024/03/17 05:33:40;;;;;;;0.68;0.50;;;17.50;69.40;;;;;;6162839;23;20499;-84
2024/03/17 05:36:06;;;;;;;0.70;0.50;;;17.50;69.00;;;;;;6111794;23;20234;-84
2024/03/17 05:38:33;;;;;;;0.50;0.50;;;17.50;68.90;;;;;;6186190;23;20181;-84
2024/03/17 05:41:01;;;;;;;0.45;0.40;;;17.50;69.10;;;;;;6186322;23;20576;-84
2024/03/17 05:43:28;;;;;;;0.43;0.30;;;17.50;68.80;;;;;;6186985;23;20210;-84
2024/03/17 05:45:56;;;;;;;0.45;0.45;;;17.50;69.50;;;;;;6186551;23;20142;-84
2024/03/17 05:48:24;;;;;;;0.50;0.50;;;17.50;69.20;;;;;;6186402;23;20179;-84
2024/03/17 05:50:51;;;;;;;0.60;0.60;;;17.50;69.00;;;;;;6162083;23;20189;-84
2024/03/17 05:53:18;;;;;;;0.40;0.40;;;17.50;69.00;;;;;;6185976;23;20143;-84
2024/03/17 05:55:43;;;;;;;0.30;0.30;;;17.50;68.90;;;;;;6186570;23;20629;-84
2024/03/17 05:58:09;;;;;;;0.85;0.43;;;17.50;69.20;;;;;;6186832;23;20128;-84
2024/03/17 06:00:37;;;;;;;0.40;0.40;;;17.40;68.90;;;;;;6186440;23;20139;-84
2024/03/17 06:03:05;;;;;;;0.50;0.50;;;17.50;69.00;;;;;;6161904;23;20143;-84
2024/03/17 06:05:37;;;;;;;0.55;0.50;;;17.50;68.70;;;;;;6185951;23;20147;-85
2024/03/17 06:08:04;;;;;;;1.38;0.47;;;17.50;68.80;;;;;;6134528;23;20154;-84
2024/03/17 06:10:31;;;;;;;0.60;0.50;;;17.50;69.20;;;;;;6185036;23;20135;-84
2024/03/17 06:12:57;;;;;;;0.50;0.50;;;17.50;69.40;;;;;;6184816;23;20135;-84
2024/03/17 06:15:23;;;;;;;0.32;0.32;;;17.40;69.10;;;;;;6184662;23;20570;-84
2024/03/17 06:17:51;;;;;;;0.50;0.50;;;17.50;69.10;;;;;;6185041;23;20150;-84
2024/03/17 06:20:23;;;;;;;0.40;0.40;;;17.50;68.90;;;;;;6185046;23;20139;-84
2024/03/17 06:22:49;;;;;;;0.60;0.45;;;17.50;69.20;;;;;;6183594;23;20173;-85
2024/03/17 06:25:15;;;;;;;0.40;0.40;;;17.50;68.80;;;;;;6184855;23;20174;-84
2024/03/17 06:27:42;;;;;;;0.43;0.40;;;17.40;68.50;;;;;;6184777;23;20209;-85
2024/03/17 06:30:13;;;;;;;0.70;0.40;;;17.50;68.70;;;;;;6184608;23;20174;-84
2024/03/17 06:32:45;;;;;;;0.57;0.50;;;17.50;68.90;;;;;;6160281;23;20277;-84
2024/03/17 06:35:18;;;;;;;0.60;0.60;;;17.50;68.70;;;;;;6111004;23;20155;-84
2024/03/17 06:37:45;;;;;;;0.50;0.50;;;17.50;68.50;;;;;;6160625;23;20205;-84
2024/03/17 06:40:14;;;;;;;0.43;0.43;;;17.50;68.90;;;;;;6134432;23;20230;-84
2024/03/17 06:42:40;;;;;;;0.85;0.52;;;17.50;68.70;;;;;;6158359;23;20151;-84
2024/03/17 06:45:09;;;;;;;1.17;0.60;;;17.50;68.90;;;;;;6186638;23;20188;-84
2024/03/17 06:47:37;;;;;;;0.55;0.55;;;17.50;68.40;;;;;;6184604;23;20138;-84
2024/03/17 06:50:04;;;;;;;0.70;0.60;;;17.50;68.40;;;;;;6159946;23;20163;-84
2024/03/17 06:52:30;;;;;;;0.40;0.40;;;17.50;68.40;;;;;;6184977;23;20153;-84
2024/03/17 06:54:58;;;;;;;0.52;0.50;;;17.50;68.70;;;;;;6183967;23;20480;-84
2024/03/17 06:57:24;;;;;;;0.50;0.50;;;17.50;68.20;;;;;;6159956;23;20150;-83
2024/03/17 06:59:51;;;;;;;0.68;0.50;;;17.50;68.70;;;;;;6184862;23;20139;-84
2024/03/17 07:02:18;;;;;;;0.40;0.40;;;17.60;68.40;;;;;;6160054;23;20194;-84
2024/03/17 07:04:44;;;;;;;0.50;0.50;;;17.50;68.40;;;;;;6185202;23;20143;-84
2024/03/17 07:07:12;;;;;;;0.50;0.40;;;17.50;68.70;;;;;;6184708;23;20165;-84
2024/03/17 07:09:39;;;;;;;0.80;0.60;;;17.50;68.40;;;;;;6184745;23;20605;-83
2024/03/17 07:12:10;;;;;;;0.40;0.40;;;17.50;68.50;;;;;;6160223;23;20135;-84
2024/03/17 07:14:36;;;;;;;0.82;0.50;;;17.50;68.50;;;;;;6159527;23;20229;-84
2024/03/17 07:17:03;;;;;;;0.57;0.47;;;17.50;68.80;;;;;;6160903;23;20139;-83
2024/03/17 07:19:30;;;;;;;0.57;0.45;;;17.50;68.70;;;;;;6184981;23;20572;-84
2024/03/17 07:21:57;;;;;;;0.63;0.40;;;17.50;68.50;;;;;;6160251;23;20506;-83
2024/03/17 07:24:27;;;;;;;0.40;0.40;;;17.50;68.80;;;;;;6209617;23;20146;-83
2024/03/17 07:26:53;;;;;;;1.30;0.50;;;17.50;68.70;;;;;;6135145;23;20237;-84
2024/03/17 07:29:19;;;;;;;0.40;0.40;;;17.50;68.10;;;;;;6184751;23;20195;-84
2024/03/17 07:31:45;;;;;;;0.73;0.60;;;17.50;68.70;;;;;;6184168;23;20190;-86
2024/03/17 07:34:10;;;;;;;0.68;0.40;;;17.50;69.00;;;;;;6184291;23;20157;-84
2024/03/17 07:36:36;;;;;;;0.57;0.50;;;17.50;68.70;;;;;;6184776;23;20131;-84
2024/03/17 07:39:02;;;;;;;0.52;0.40;;;17.50;68.70;;;;;;6160235;23;20155;-84
2024/03/17 07:41:31;;;;;;;0.50;0.47;;;17.50;69.30;;;;;;6184567;23;20157;-85
2024/03/17 07:43:57;;;;;;;0.60;0.57;;;17.50;68.60;;;;;;6186530;23;20632;-84
2024/03/17 07:46:25;;;;;;;0.70;0.50;;;17.50;68.50;;;;;;6160881;23;20158;-85
2024/03/17 07:48:51;;;;;;;1.30;0.43;;;17.50;68.10;;;;;;6186427;23;20613;-84
2024/03/17 07:51:17;;;;;;;0.45;0.40;;;17.50;68.30;;;;;;6186824;23;20184;-84
2024/03/17 07:53:47;;;;;;;2.58;0.57;;;17.50;68.20;;;;;;6186051;23;20150;-83
2024/03/17 07:56:14;;;;;;;0.95;0.55;;;17.50;68.60;;;;;;6186060;23;20127;-84
2024/03/17 07:58:43;;;;;;;0.98;0.50;;;17.40;67.80;;;;;;6162352;23;20159;-84
2024/03/17 08:01:26;;;;;;;0.47;0.47;;;17.60;67.70;;;;;;6165509;23;20201;-85
2024/03/17 08:04:59;;;;;;;0.63;0.55;;;17.70;67.10;;;;;;6156672;23;20151;-85
2024/03/17 08:11:46;;;;;;;0.93;0.60;;;17.70;67.50;;;;;;5989443;23;20171;-84
2024/03/17 08:14:15;;;;;;;1.55;0.40;;;17.70;67.60;;;;;;5877300;24;20188;-84
2024/03/17 08:17:10;;;;;;;0.90;0.60;;;17.80;65.90;;;;;;5876796;24;20180;-85
2024/03/17 08:19:54;;;;;;;0.93;0.50;;;17.90;66.50;;;;;;5796688;24;20159;-84
2024/03/17 08:22:23;;;;;;;0.65;0.43;;;17.90;65.80;;;;;;5795650;24;20612;-84
2024/03/17 08:24:53;;;;;;;4.53;0.80;;;17.90;65.40;;;;;;5796381;24;20167;-83
2024/03/17 08:27:44;;;;;;;0.60;0.40;;;18.00;65.80;;;;;;5795687;24;20163;-85
2024/03/17 08:30:47;;;;;;;;;;;;;;;;;;;;;
2024/03/17 08:36:51;;;;;;;1.63;0.40;;;18.10;64.30;;;;;;5745178;25;20169;-85
2024/03/17 08:39:51;;;;;;;;;;;;;;;;;;;;;
2024/03/17 08:43:00;;;;;;;;;;;;;;;;;;;;;
2024/03/17 08:46:18;;;;;;;;;;;;;;;;;;;;;
2024/03/17 08:49:05;;;;;;;1.70;0.57;;;18.10;65.10;;;;;;5786928;24;20191;-84
2024/03/17 08:51:36;;;;;;;0.80;0.50;;;18.10;65.30;;;;;;5791215;24;20629;-84
2024/03/17 08:54:03;;;;;;;3.88;0.60;;;18.10;65.00;;;;;;5789922;24;20198;-84
2024/03/17 08:57:23;;;;;;;4.00;0.60;;;18.20;64.50;;;;;;5829966;24;20157;-85
2024/03/17 08:59:55;;;;;;;3.85;0.57;;;18.10;65.00;;;;;;5875052;24;20158;-83
2024/03/17 09:02:33;;;;;;;6.28;0.77;;;18.10;64.40;;;;;;5851985;24;20155;-84
2024/03/17 09:05:08;;;;;;;3.80;0.55;;;18.10;63.70;;;;;;5793973;24;20160;-85
2024/03/17 09:07:54;;;;;;;5.57;0.77;;;18.30;62.30;;;;;;5766632;24;20157;-84
2024/03/17 09:10:29;;;;;;;4.97;1.10;;;18.30;63.60;;;;;;5783745;24;20293;-85
2024/03/17 09:12:58;;;;;;;1.73;0.60;;;18.40;61.10;;;;;;5750663;24;20244;-83
2024/03/17 09:15:31;;;;;;;8.13;0.95;;;18.40;61.10;;;;;;5776638;24;20229;-85
2024/03/17 09:18:03;;;;;;;5.25;0.57;;;18.50;60.00;;;;;;5766073;24;20172;-85
2024/03/17 09:20:33;;;;;;;3.90;0.75;;;18.50;62.10;;;;;;5813415;24;20494;-85
2024/03/17 09:23:07;;;;;;;5.60;0.52;;;18.50;63.50;;;;;;5796214;24;20627;-85
2024/03/17 09:26:19;;;;;;;4.63;0.50;;;18.50;62.60;;;;;;5855830;24;20218;-83
2024/03/17 09:28:22;;;;;;;2.90;0.57;;;18.60;60.40;;;;;;5882698;24;20450;-83
2024/03/17 09:30:59;;;;;;;3.38;0.60;;;18.60;61.60;;;;;;5855137;24;20169;-83
2024/03/17 09:33:55;;;;;;;6.93;0.85;;;18.50;62.70;;;;;;5915235;24;20200;-84
2024/03/17 09:36:44;;;;;;;;;;;;;;;;;;;;;
2024/03/17 09:39:25;;;;;;;;;;;;;;;;;;;;;
2024/03/17 09:41:56;;;;;;;1.10;0.70;;;18.60;61.50;;;;;;6039048;23;20243;-84
2024/03/17 09:44:24;;;;;;;5.53;0.80;;;18.70;60.20;;;;;;6061666;23;20700;-85
2024/03/17 09:47:01;;;;;;;4.10;0.70;;;18.70;60.10;;;;;;6038348;23;20156;-86
2024/03/17 09:49:52;;;;;;;;;;;;;;;;;;;;;
2024/03/17 09:53:04;;;;;;;2.53;0.75;;;18.70;59.80;;;;;;5924655;24;20592;-84
2024/03/17 09:59:27;;;;;;;;;;;;;;;;;;;;;
2024/03/17 10:02:18;;;;;;;4.05;1.00;;;18.70;61.00;;;;;;6020826;23;20181;-84
2024/03/17 10:05:34;;;;;;;7.63;0.90;;;18.60;62.30;;;;;;6032611;23;20157;-87
2024/03/17 10:07:39;;;;;;;5.40;0.70;;;18.60;62.10;;;;;;6015796;23;20153;-85
2024/03/17 10:10:24;;;;;;;4.68;0.75;;;18.60;62.60;;;;;;6045860;23;20185;-85
2024/03/17 10:12:51;;;;;;;5.75;0.65;;;18.60;64.40;;;;;;6026615;23;20153;-85
2024/03/17 10:15:18;;;;;;;8.15;0.80;;;18.40;63.60;;;;;;6080387;23;20152;-84
2024/03/17 10:17:47;;;;;;;2.85;0.95;;;18.40;63.30;;;;;;6128752;23;20152;-84
2024/03/17 10:20:18;;;;;;;3.75;0.65;;;18.40;65.90;;;;;;6104398;23;20634;-84
2024/03/17 10:23:01;;;;;;;3.53;0.70;;;18.30;63.60;;;;;;6112220;23;20661;-85
2024/03/17 10:25:32;;;;;;;7.45;1.00;;;18.30;65.70;;;;;;6214486;23;20158;-84
2024/03/17 10:27:58;;;;;;;5.32;0.93;;;18.40;65.50;;;;;;6189932;23;20157;-83
2024/03/17 10:30:26;;;;;;;5.90;0.80;;;18.30;64.70;;;;;;6187638;23;20171;-84
2024/03/17 10:32:55;;;;;;;4.63;0.85;;;18.30;65.00;;;;;;6187418;23;20234;-84
2024/03/17 10:35:31;;;;;;;4.13;0.52;;;18.20;65.80;;;;;;6164812;23;20215;-84
2024/03/17 10:38:01;;;;;;;4.50;0.90;;;18.30;65.20;;;;;;6191098;23;20138;-85
2024/03/17 10:40:32;;;;;;;8.35;1.02;;;18.30;63.60;;;;;;6165303;23;20467;-84
2024/03/17 10:43:00;;;;;;;6.85;0.80;;;18.40;63.00;;;;;;6118335;23;20150;-83
2024/03/17 10:45:26;;;;;;;7.95;0.70;;;18.40;64.30;;;;;;6193052;23;20143;-83
2024/03/17 10:47:52;;;;;;;3.85;0.90;;;18.50;64.40;;;;;;6190122;23;20162;-83
2024/03/17 10:50:21;;;;;;;4.15;0.80;;;18.50;63.30;;;;;;6190419;23;20225;-84
2024/03/17 10:52:49;;;;;;;5.38;0.70;;;18.50;63.30;;;;;;6165256;23;20147;-83
2024/03/17 10:55:24;;;;;;;3.17;0.90;;;18.40;63.70;;;;;;6166993;23;20201;-84
2024/03/17 10:57:57;;;;;;;5.30;0.73;;;18.50;65.70;;;;;;6192621;23;20199;-85
2024/03/17 11:00:29;;;;;;;3.30;0.65;;;18.50;64.20;;;;;;6135569;23;20161;-85
2024/03/17 11:03:02;;;;;;;6.30;0.93;;;18.50;64.10;;;;;;6051632;23;20667;-85
2024/03/17 11:05:34;;;;;;;7.47;0.55;;;18.50;63.60;;;;;;6046635;23;20269;-85
2024/03/17 11:08:07;;;;;;;6.15;0.98;;;18.50;63.00;;;;;;6047067;23;20154;-86
2024/03/17 11:10:43;;;;;;;4.22;0.70;;;18.50;63.00;;;;;;6045627;23;20164;-85
2024/03/17 11:13:25;;;;;;;6.97;0.65;;;18.50;63.30;;;;;;6048864;23;20153;-85
2024/03/17 11:15:58;;;;;;;4.43;0.88;;;18.50;63.10;;;;;;6016415;23;20155;-86
2024/03/17 11:18:24;;;;;;;7.22;1.30;;;18.50;63.40;;;;;;5974434;23;20205;-85
2024/03/17 11:21:12;;;;;;;3.95;0.50;;;18.60;63.20;;;;;;5963124;24;20164;-85
2024/03/17 11:23:42;;;;;;;6.15;0.65;;;18.60;63.60;;;;;;5874999;24;20160;-85
2024/03/17 11:26:14;;;;;;;9.07;0.98;;;18.60;63.40;;;;;;5892635;24;20168;-85
2024/03/17 11:28:52;;;;;;;5.38;0.70;;;18.60;64.40;;;;;;5996119;23;20183;-85
2024/03/17 11:31:46;;;;;;;8.85;0.93;;;18.60;63.70;;;;;;5976427;23;20159;-84
2024/03/17 11:34:33;;;;;;;8.27;0.82;;;18.60;63.80;;;;;;6022963;23;20210;-85
2024/03/17 11:37:03;;;;;;;6.43;0.90;;;18.60;64.60;;;;;;5998017;23;20158;-84
2024/03/17 11:39:57;;;;;;;2.78;0.73;;;18.60;64.00;;;;;;5999917;23;20157;-85
2024/03/17 11:42:36;;;;;;;7.53;0.98;;;18.60;64.60;;;;;;6023960;23;20150;-84
2024/03/17 11:45:06;;;;;;;12.57;1.20;;;18.60;64.20;;;;;;5938469;24;20168;-83
2024/03/17 11:47:48;;;;;;;5.22;0.82;;;18.60;64.40;;;;;;6052789;23;20154;-83
2024/03/17 11:50:18;;;;;;;14.82;1.30;;;18.60;63.40;;;;;;6024102;23;20284;-84
2024/03/17 11:52:57;;;;;;;6.40;0.93;;;18.60;62.40;;;;;;6048696;23;20505;-83
2024/03/17 11:56:05;;;;;;;7.22;1.10;;;18.60;64.20;;;;;;6044287;23;20231;-85
2024/03/17 11:58:46;;;;;;;6.10;0.60;;;18.60;63.20;;;;;;5974314;24;20160;-84
2024/03/17 12:01:27;;;;;;;9.30;1.30;;;18.70;63.50;;;;;;5918718;24;20164;-86
2024/03/17 12:04:05;;;;;;;17.55;1.60;;;18.70;63.20;;;;;;5984658;24;20152;-85
2024/03/17 12:07:16;;;;;;;15.02;1.05;;;18.70;60.80;;;;;;5999247;23;20161;-86
2024/03/17 12:09:53;;;;;;;23.17;1.55;;;18.70;62.10;;;;;;5939176;24;20219;-86
2024/03/17 12:12:53;;;;;;;13.05;1.45;;;18.70;62.60;;;;;;5855279;24;20169;-84
2024/03/17 12:15:24;;;;;;;22.63;1.75;;;18.70;62.60;;;;;;5840173;24;20154;-84
2024/03/17 12:17:55;;;;;;;11.30;1.38;;;18.70;61.80;;;;;;5878832;24;20161;-84
2024/03/17 12:20:26;;;;;;;10.98;1.50;;;18.70;62.00;;;;;;5901574;24;20630;-85
2024/03/17 12:23:01;;;;;;;18.70;1.52;;;18.80;60.00;;;;;;5858718;24;20245;-85
2024/03/17 12:25:32;;;;;;;21.55;1.70;;;18.70;62.90;;;;;;5874404;24;20224;-85
2024/03/17 12:28:17;;;;;;;25.45;2.20;;;18.70;64.80;;;;;;5900458;24;20166;-85
2024/03/17 12:31:19;;;;;;;20.95;2.25;;;18.70;64.30;;;;;;5859549;24;20211;-86
2024/03/17 12:33:46;;;;;;;19.60;1.75;;;18.70;62.70;;;;;;5858285;24;20527;-84
2024/03/17 12:36:13;;;;;;;29.88;2.95;;;18.70;63.10;;;;;;5875124;24;20243;-85
2024/03/17 12:38:55;;;;;;;13.73;1.63;;;18.70;64.10;;;;;;5877779;24;20543;-86
2024/03/17 12:41:33;;;;;;;27.63;2.13;;;18.70;62.60;;;;;;5864568;24;20677;-85
2024/03/17 12:44:06;;;;;;;19.00;1.83;;;18.70;61.50;;;;;;5954297;24;20623;-85
2024/03/17 12:46:38;;;;;;;15.70;1.63;;;18.70;62.20;;;;;;5938624;24;20624;-85
2024/03/17 12:49:12;;;;;;;16.63;1.50;;;18.70;63.40;;;;;;5951763;23;20186;-86
2024/03/17 12:51:40;;;;;;;14.43;1.73;;;18.80;60.80;;;;;;5943327;24;20227;-85
2024/03/17 12:54:17;;;;;;;14.27;1.33;;;18.80;61.60;;;;;;5976395;23;20241;-86
2024/03/17 13:02:44;;;;;;;9.45;1.20;;;18.80;62.10;;;;;;6008794;23;20159;-85
2024/03/17 13:05:18;;;;;;;10.05;1.30;;;18.80;60.60;;;;;;6057895;23;20500;-86
2024/03/17 13:07:46;;;;;;;12.30;1.23;;;18.80;61.30;;;;;;6029957;23;20164;-86
2024/03/17 13:10:14;;;;;;;14.65;1.40;;;18.90;61.50;;;;;;6075155;23;20184;-84
2024/03/17 13:12:41;;;;;;;14.10;1.33;;;18.80;63.20;;;;;;6044865;23;20153;-84
2024/03/17 13:15:09;;;;;;;9.00;0.70;;;18.80;61.70;;;;;;6047562;23;20612;-85
2024/03/17 13:17:35;;;;;;;12.93;1.00;;;18.80;61.40;;;;;;6097146;23;20236;-85
2024/03/17 13:20:02;;;;;;;13.95;1.05;;;18.90;61.80;;;;;;6097032;23;20184;-85
2024/03/17 13:22:30;;;;;;;9.48;1.20;;;18.80;60.10;;;;;;6120718;23;20270;-85
2024/03/17 13:24:55;;;;;;;8.02;0.90;;;18.80;60.90;;;;;;6095965;23;20157;-85
2024/03/17 13:27:22;;;;;;;12.05;1.15;;;18.90;60.20;;;;;;6098848;23;20160;-85
2024/03/17 13:29:50;;;;;;;14.60;1.42;;;18.90;61.00;;;;;;6098049;23;20181;-84
2024/03/17 13:32:17;;;;;;;6.65;0.90;;;18.90;60.60;;;;;;6127083;23;20199;-85
2024/03/17 13:34:51;;;;;;;6.13;1.10;;;18.80;60.70;;;;;;6125575;23;20162;-85